Time;durP1;ratioP1;P1;durP2;ratioP2;P2;SDS_P1;SDS_P2;PMS_P1;PMS_P2;Temp;Humidity;BMP_temperature;BMP_pressure;BME280_temperature;BME280_humidity;BME280_pressure;Samples;Min_cycle;Max_cycle;Signal;HPM_P1;HPM_P2
2022/05/05 00:01:21;;;;;;;7.97;2.65;;;;;;;15.93;49.04;99071.38;5031013;28;20030;-71
2022/05/05 00:03:47;;;;;;;4.80;2.58;;;;;;;15.89;48.90;99075.25;5047745;28;20086;-71
2022/05/05 00:06:12;;;;;;;2.90;2.50;;;;;;;15.89;49.05;99085.78;5031620;28;20120;-71
2022/05/05 00:08:38;;;;;;;3.00;2.30;;;;;;;15.88;48.93;99084.97;5014333;28;20118;-71
2022/05/05 00:16:31;;;;;;;4.35;2.63;;;;;;;15.82;49.03;99084.72;5032047;28;20125;-71
2022/05/05 00:18:56;;;;;;;6.65;2.88;;;;;;;15.74;49.29;99080.94;5030810;28;20037;-71
2022/05/05 00:21:22;;;;;;;4.00;2.50;;;;;;;15.76;49.43;99087.88;5031328;28;20044;-71
2022/05/05 00:23:48;;;;;;;6.72;2.80;;;;;;;15.76;49.16;99085.25;5031141;28;20040;-71
2022/05/05 00:26:13;;;;;;;4.22;2.50;;;;;;;15.76;49.23;99083.44;5030590;28;20114;-71
2022/05/05 00:28:39;;;;;;;6.18;2.88;;;;;;;15.74;49.14;99080.13;5047213;28;20048;-70
2022/05/05 00:31:04;;;;;;;6.38;2.70;;;;;;;15.73;49.09;99078.44;5047196;28;20045;-71
2022/05/05 00:33:30;;;;;;;5.70;2.90;;;;;;;15.70;49.42;99082.22;5032268;28;20496;-71
2022/05/05 00:35:56;;;;;;;4.15;2.70;;;;;;;15.69;49.33;99079.72;5034859;28;20053;-71
2022/05/05 00:38:21;;;;;;;5.03;2.90;;;;;;;15.67;49.53;99079.00;5051525;28;20079;-71
2022/05/05 00:40:47;;;;;;;5.70;2.60;;;;;;;15.65;49.21;99079.16;5035203;28;20037;-71
2022/05/05 00:43:12;;;;;;;7.25;2.92;;;;;;;15.61;49.54;99072.53;5018308;28;20061;-71
2022/05/05 00:45:38;;;;;;;4.38;2.75;;;;;;;15.56;49.37;99065.06;5036214;28;20030;-71
2022/05/05 00:48:07;;;;;;;4.10;2.60;;;;;;;15.60;49.22;99075.31;5035178;28;20528;-71
2022/05/05 00:50:33;;;;;;;5.28;2.95;;;;;;;15.61;49.04;99079.56;5018135;28;20050;-71
2022/05/05 00:52:59;;;;;;;4.60;2.65;;;;;;;15.60;49.36;99085.81;5034707;28;20033;-71
2022/05/05 00:55:25;;;;;;;4.82;2.47;;;;;;;15.59;49.06;99082.34;5051381;28;20096;-71
2022/05/05 00:57:50;;;;;;;6.38;2.60;;;;;;;15.55;49.19;99079.16;5034619;28;20029;-71
2022/05/05 01:00:16;;;;;;;5.47;2.50;;;;;;;15.55;49.47;99075.72;5034300;28;20033;-71
2022/05/05 01:02:41;;;;;;;2.90;2.60;;;;;;;15.56;49.25;99072.94;5034421;28;20459;-71
2022/05/05 01:05:07;;;;;;;3.05;2.28;;;;;;;15.53;49.64;99075.84;5034476;28;20040;-71
2022/05/05 01:07:33;;;;;;;5.00;2.47;;;;;;;15.52;49.34;99082.06;5034430;28;20408;-71
2022/05/05 01:09:59;;;;;;;5.22;2.40;;;;;;;15.50;49.37;99073.50;5017843;28;20026;-71
2022/05/05 01:12:29;;;;;;;5.72;2.70;;;;;;;15.53;49.32;99081.13;5034374;28;20025;-71
2022/05/05 01:14:55;;;;;;;3.13;2.60;;;;;;;15.52;49.20;99078.63;5034240;28;20171;-71
2022/05/05 01:17:24;;;;;;;3.53;2.50;;;;;;;15.52;49.44;99081.25;5034469;28;20106;-71
2022/05/05 01:19:50;;;;;;;3.65;2.72;;;;;;;15.50;49.48;99086.66;5033928;28;20458;-71
2022/05/05 01:22:17;;;;;;;3.55;2.60;;;;;;;15.50;49.46;99088.47;5035316;28;20022;-71
2022/05/05 01:30:12;;;;;;;5.70;2.85;;;;;;;15.42;49.73;99104.94;5035351;28;20171;-71
2022/05/05 01:32:37;;;;;;;4.20;2.53;;;;;;;15.38;49.52;99107.00;5035269;28;20036;-71
2022/05/05 01:35:03;;;;;;;3.63;2.50;;;;;;;15.37;50.06;99107.16;5033739;28;20125;-71
2022/05/05 01:37:29;;;;;;;3.92;2.75;;;;;;;15.31;49.80;99100.66;5035044;28;20034;-71
2022/05/05 01:39:54;;;;;;;4.78;2.78;;;;;;;15.35;49.76;99107.31;5034004;28;20045;-71
2022/05/05 01:42:20;;;;;;;3.78;2.80;;;;;;;15.33;49.78;99103.16;5049985;28;20048;-71
2022/05/05 01:44:45;;;;;;;4.20;2.72;;;;;;;15.34;49.80;99105.63;5050199;28;20091;-71
2022/05/05 01:47:11;;;;;;;4.35;2.50;;;;;;;15.31;50.01;99103.28;5050080;28;20030;-71
2022/05/05 01:49:36;;;;;;;4.55;2.47;;;;;;;15.35;49.86;99101.19;5016704;28;20037;-72
2022/05/05 01:52:02;;;;;;;4.03;2.90;;;;;;;15.30;49.82;99101.59;5034821;28;20519;-71
2022/05/05 01:54:27;;;;;;;3.53;2.60;;;;;;;15.32;49.88;99098.84;5033861;28;20033;-71
2022/05/05 01:56:53;;;;;;;4.18;2.72;;;;;;;15.34;49.73;99104.81;5033578;28;20036;-71
2022/05/05 01:59:18;;;;;;;3.75;2.38;;;;;;;15.32;49.69;99104.97;5034795;28;20026;-71
2022/05/05 02:01:44;;;;;;;3.38;2.55;;;;;;;15.33;49.80;99098.72;5034771;28;20056;-71
2022/05/05 02:04:09;;;;;;;3.67;2.60;;;;;;;15.32;49.79;99094.44;5049974;28;20037;-71
2022/05/05 02:06:35;;;;;;;3.25;2.55;;;;;;;15.30;49.92;99098.16;5034286;28;20044;-71
2022/05/05 02:09:01;;;;;;;5.22;2.63;;;;;;;15.24;49.87;99091.63;5034511;28;20034;-71
2022/05/05 02:11:26;;;;;;;2.85;2.40;;;;;;;15.27;49.83;99098.44;5033314;28;20079;-71
2022/05/05 02:13:52;;;;;;;3.38;2.47;;;;;;;15.25;49.72;99100.38;5034400;28;20508;-70
2022/05/05 02:16:17;;;;;;;4.28;2.72;;;;;;;15.20;50.02;99103.41;5034456;28;20029;-71
2022/05/05 02:18:43;;;;;;;4.38;2.65;;;;;;;15.20;49.78;99098.16;5049866;28;20033;-71
2022/05/05 02:21:08;;;;;;;4.15;2.50;;;;;;;15.19;49.73;99102.56;5032734;28;20037;-71
2022/05/05 02:23:34;;;;;;;4.00;2.67;;;;;;;15.17;49.75;99103.69;5049477;28;20040;-71
2022/05/05 02:25:59;;;;;;;3.22;2.60;;;;;;;15.14;49.94;99102.16;5033340;28;20408;-71
2022/05/05 02:28:26;;;;;;;4.20;2.70;;;;;;;15.13;49.88;99104.94;5033018;28;20040;-71
2022/05/05 02:30:51;;;;;;;4.75;2.80;;;;;;;15.13;50.03;99103.16;5049136;28;20128;-71
2022/05/05 02:33:17;;;;;;;4.85;2.85;;;;;;;14.99;49.90;99093.00;5033781;28;20104;-71
2022/05/05 02:35:42;;;;;;;4.55;2.88;;;;;;;15.09;49.95;99108.81;5048939;28;20065;-71
2022/05/05 02:40:52;;;;;;;4.13;2.67;;;;;;;15.07;50.12;99110.72;5033860;28;20530;-71
2022/05/05 02:43:18;;;;;;;3.80;2.70;;;;;;;15.06;49.69;99106.47;5049255;28;20030;-71
2022/05/05 02:45:43;;;;;;;5.30;2.60;;;;;;;15.04;50.06;99106.59;5032576;28;20037;-71
2022/05/05 02:48:09;;;;;;;3.95;2.70;;;;;;;15.01;49.95;99105.06;5032810;28;20400;-71
2022/05/05 02:50:34;;;;;;;6.55;2.80;;;;;;;15.01;49.96;99109.50;5033841;28;20029;-71
2022/05/05 02:53:00;;;;;;;3.15;2.53;;;;;;;14.98;50.08;99107.97;5031999;28;20042;-70
2022/05/05 02:55:26;;;;;;;5.35;2.78;;;;;;;14.93;49.96;99104.91;5032296;28;20033;-71
2022/05/05 02:57:52;;;;;;;8.02;2.55;;;;;;;14.91;50.05;99101.59;5031815;28;20037;-70
2022/05/05 03:00:18;;;;;;;3.30;2.40;;;;;;;14.91;50.00;99112.13;5015587;28;20033;-71
2022/05/05 03:02:44;;;;;;;3.22;2.38;;;;;;;14.92;50.19;99119.00;5033422;28;20057;-71
2022/05/05 03:05:10;;;;;;;4.32;2.70;;;;;;;14.89;49.96;99116.66;5033253;28;20112;-71
2022/05/05 03:07:35;;;;;;;5.22;2.97;;;;;;;14.91;49.96;99122.63;5033083;28;20485;-72
2022/05/05 03:10:01;;;;;;;6.00;2.83;;;;;;;14.90;50.04;99128.84;5032210;28;20029;-70
2022/05/05 03:12:27;;;;;;;6.00;2.67;;;;;;;14.93;49.89;99127.75;5048724;28;20083;-71
2022/05/05 03:14:52;;;;;;;8.25;2.75;;;;;;;14.92;49.88;99126.06;5031890;28;20087;-73
2022/05/05 03:17:18;;;;;;;3.72;2.55;;;;;;;14.94;50.16;99138.13;5031769;28;20584;-71
2022/05/05 03:19:43;;;;;;;4.20;2.58;;;;;;;14.96;49.82;99140.59;5032877;28;20033;-71
2022/05/05 03:22:09;;;;;;;5.05;2.80;;;;;;;14.96;50.00;99135.34;5032964;28;20029;-69
2022/05/05 03:24:34;;;;;;;4.28;2.40;;;;;;;15.02;49.76;99143.53;5048348;28;20036;-76
2022/05/05 03:27:01;;;;;;;4.00;2.65;;;;;;;15.03;49.79;99146.97;5031749;28;20026;-76
2022/05/05 03:29:26;;;;;;;4.65;2.45;;;;;;;15.04;49.57;99143.41;5048192;28;20056;-73
2022/05/05 03:31:53;;;;;;;3.90;2.78;;;;;;;15.13;49.79;99149.63;5031528;28;20523;-66
2022/05/05 03:34:19;;;;;;;3.42;1.85;;;;;;;15.84;54.59;99153.81;5032483;28;20053;-65
2022/05/05 03:36:44;;;;;;;3.72;2.35;;;;;;;16.51;51.45;99153.78;5014913;28;20424;-65
2022/05/05 03:39:10;;;;;;;3.53;2.45;;;;;;;16.97;49.12;99168.72;5047952;28;20021;-64
2022/05/05 03:41:36;;;;;;;2.80;2.20;;;;;;;17.52;47.43;99170.44;5047643;28;20492;-67
2022/05/05 03:44:03;;;;;;;3.53;2.20;;;;;;;18.01;45.78;99156.00;5031445;28;20401;-67
2022/05/05 03:46:30;;;;;;;4.88;2.55;;;;;;;18.57;44.00;99159.97;5032552;28;20103;-67
2022/05/05 03:48:56;;;;;;;3.77;2.40;;;;;;;19.13;42.81;99160.38;5031255;28;20408;-67
2022/05/05 03:51:22;;;;;;;3.00;2.20;;;;;;;19.75;41.24;99166.22;5047748;28;20107;-67
2022/05/05 03:53:47;;;;;;;4.30;2.05;;;;;;;20.32;39.70;99152.09;5032407;28;20469;-67
2022/05/05 03:56:12;;;;;;;2.50;2.00;;;;;;;20.90;38.45;99166.00;5031607;28;20033;-68
2022/05/05 03:58:38;;;;;;;3.15;2.17;;;;;;;21.46;37.45;99156.06;5032608;28;20033;-69
2022/05/05 04:01:04;;;;;;;3.58;2.13;;;;;;;22.01;36.07;99155.94;5047607;28;20480;-68
2022/05/05 04:03:32;;;;;;;3.00;2.00;;;;;;;22.61;35.00;99164.81;5031199;28;20036;-67
2022/05/05 04:06:04;;;;;;;3.13;2.03;;;;;;;23.16;34.08;99175.13;5032824;28;20034;-67
2022/05/05 04:08:30;;;;;;;3.08;2.05;;;;;;;23.72;32.86;99175.28;5030239;28;20408;-68
2022/05/05 04:10:55;;;;;;;3.08;1.95;;;;;;;24.25;32.33;99172.22;5047630;28;20025;-68
2022/05/05 04:13:21;;;;;;;4.50;1.98;;;;;;;24.74;31.31;99170.47;5032287;28;20025;-68
2022/05/05 04:15:47;;;;;;;4.90;2.30;;;;;;;25.28;30.67;99168.84;5031167;28;20416;-68
2022/05/05 04:18:13;;;;;;;3.17;2.00;;;;;;;25.72;29.63;99155.97;5030959;28;20043;-68
2022/05/05 04:20:39;;;;;;;3.03;1.70;;;;;;;26.23;29.10;99160.66;5047138;28;20037;-68
2022/05/05 04:23:05;;;;;;;3.55;2.20;;;;;;;26.76;28.14;99173.13;5014942;28;20098;-70
2022/05/05 04:25:30;;;;;;;4.65;1.75;;;;;;;27.22;27.61;99171.25;5032222;28;20374;-67
2022/05/05 04:27:56;;;;;;;3.30;1.80;;;;;;;27.75;27.08;99173.63;5030779;28;20116;-68
2022/05/05 04:30:21;;;;;;;2.80;1.65;;;;;;;28.24;26.49;99173.81;5030701;28;20021;-68
2022/05/05 04:32:47;;;;;;;2.47;1.67;;;;;;;28.69;25.72;99173.56;5030858;28;20504;-68
2022/05/05 04:35:13;;;;;;;2.53;1.75;;;;;;;29.15;25.40;99175.91;5030780;28;20107;-68
2022/05/05 04:37:39;;;;;;;4.65;1.80;;;;;;;29.62;24.52;99173.38;5031230;28;20477;-68
2022/05/05 04:40:05;;;;;;;3.67;1.92;;;;;;;30.08;24.06;99174.50;5030772;28;20043;-68
2022/05/05 04:42:31;;;;;;;4.07;2.00;;;;;;;30.63;23.42;99180.56;5014302;28;20030;-68
2022/05/05 04:44:56;;;;;;;4.60;2.45;;;;;;;31.08;23.08;99176.38;5030894;28;20064;-66
2022/05/05 04:47:22;;;;;;;6.85;2.30;;;;;;;31.52;22.24;99185.50;5047514;28;20440;-66
2022/05/05 04:49:47;;;;;;;4.43;2.40;;;;;;;31.98;21.73;99188.19;5032289;28;20033;-66
2022/05/05 04:52:13;;;;;;;3.30;2.20;;;;;;;32.36;21.34;99183.06;5030848;28;20120;-67
2022/05/05 04:54:38;;;;;;;8.32;2.30;;;;;;;32.88;20.65;99181.84;5030811;28;20499;-67
2022/05/05 04:57:04;;;;;;;6.60;2.15;;;;;;;33.26;20.31;99175.53;5031896;28;20068;-67
2022/05/05 04:59:29;;;;;;;6.50;2.70;;;;;;;32.53;20.68;99183.00;5030446;28;20104;-67
2022/05/05 05:01:55;;;;;;;5.25;2.60;;;;;;;31.21;22.15;99184.97;5030666;28;20029;-68
2022/05/05 05:04:20;;;;;;;5.80;2.60;;;;;;;30.37;23.12;99189.94;5030373;28;20526;-68
2022/05/05 05:06:46;;;;;;;7.25;3.03;;;;;;;29.28;24.35;99193.75;5013214;28;20034;-66
2022/05/05 05:09:11;;;;;;;5.95;3.15;;;;;;;28.34;25.37;99189.44;5029094;28;20021;-68
2022/05/05 05:11:37;;;;;;;7.90;3.20;;;;;;;27.60;26.49;99191.88;5012829;28;20033;-70
2022/05/05 05:14:03;;;;;;;6.75;2.58;;;;;;;27.02;27.31;99182.06;5030137;28;20556;-70
2022/05/05 05:16:28;;;;;;;5.85;2.28;;;;;;;27.01;29.22;99194.66;5013211;28;20037;-68
2022/05/05 05:18:54;;;;;;;8.10;3.00;;;;;;;28.22;28.11;99196.56;5030535;28;20026;-65
2022/05/05 05:21:20;;;;;;;10.05;2.63;;;;;;;29.83;26.54;99195.44;5033748;28;20451;-65
2022/05/05 05:23:45;;;;;;;13.38;3.00;;;;;;;30.96;25.30;99189.84;5015972;28;20102;-66
2022/05/05 05:26:13;;;;;;;6.95;2.67;;;;;;;32.11;23.96;99192.44;5018660;28;20461;-67
2022/05/05 05:28:39;;;;;;;6.95;2.33;;;;;;;32.98;23.30;99190.88;5036149;28;20032;-66
2022/05/05 05:31:05;;;;;;;6.53;2.45;;;;;;;33.75;22.47;99193.59;5036387;28;20091;-66
2022/05/05 05:33:30;;;;;;;4.28;2.42;;;;;;;34.40;21.60;99198.94;5052694;28;20076;-66
2022/05/05 05:35:56;;;;;;;10.73;2.60;;;;;;;34.98;21.21;99204.31;5036632;28;20061;-66
2022/05/05 05:38:21;;;;;;;5.47;2.63;;;;;;;35.44;20.87;99196.34;5052169;28;20112;-67
2022/05/05 05:40:47;;;;;;;6.47;2.40;;;;;;;35.77;19.60;99194.19;5051871;28;20140;-67
2022/05/05 05:43:13;;;;;;;6.68;2.58;;;;;;;36.13;19.23;99199.56;5053635;28;20460;-66
2022/05/05 05:45:39;;;;;;;8.00;2.63;;;;;;;36.33;18.69;99196.03;5032717;28;20042;-67
2022/05/05 05:48:07;;;;;;;7.60;2.80;;;;;;;36.48;18.55;99199.78;5034383;28;20029;-66
2022/05/05 05:50:33;;;;;;;8.85;2.95;;;;;;;36.63;18.20;99197.03;5033077;28;20041;-66
2022/05/05 05:52:59;;;;;;;10.75;3.35;;;;;;;36.81;17.58;99198.31;5000723;28;20500;-67
2022/05/05 05:55:24;;;;;;;8.65;3.28;;;;;;;37.04;17.12;99194.13;5034636;28;20048;-66
2022/05/05 05:57:50;;;;;;;8.23;3.53;;;;;;;37.17;16.87;99194.59;5034643;28;20435;-66
2022/05/05 06:00:16;;;;;;;9.55;2.72;;;;;;;37.18;16.96;99191.59;5034685;28;20033;-64
2022/05/05 06:05:25;;;;;;;8.15;2.45;;;;;;;37.28;17.18;99194.28;5034633;28;20083;-67
2022/05/05 06:07:51;;;;;;;10.18;2.40;;;;;;;37.32;17.21;99190.97;5016718;28;20033;-68
2022/05/05 06:10:18;;;;;;;7.13;2.38;;;;;;;37.43;16.97;99196.09;5034144;28;20025;-68
2022/05/05 06:12:43;;;;;;;6.10;2.35;;;;;;;37.45;17.13;99195.81;5016783;28;20056;-69
2022/05/05 06:15:09;;;;;;;9.10;2.40;;;;;;;37.14;18.01;99201.41;5033544;28;20126;-67
2022/05/05 06:17:35;;;;;;;6.32;2.30;;;;;;;36.89;18.18;99200.44;5034404;28;20049;-64
2022/05/05 06:20:00;;;;;;;6.68;2.47;;;;;;;36.54;18.51;99194.03;5034130;28;20558;-65
2022/05/05 06:22:26;;;;;;;8.65;2.50;;;;;;;36.23;18.89;99193.31;5034144;28;20030;-65
2022/05/05 06:24:52;;;;;;;9.95;2.85;;;;;;;35.92;19.01;99192.56;5033788;28;20033;-64
2022/05/05 06:27:17;;;;;;;10.00;2.40;;;;;;;35.61;19.62;99189.81;5034527;28;20021;-64
2022/05/05 06:29:42;;;;;;;6.50;2.30;;;;;;;35.41;19.88;99196.88;5034137;28;20461;-64
2022/05/05 06:32:08;;;;;;;8.57;2.55;;;;;;;35.29;20.22;99190.88;5033038;28;20032;-65
2022/05/05 06:34:34;;;;;;;7.65;2.42;;;;;;;35.20;19.78;99195.97;5034056;28;20409;-65
2022/05/05 06:36:59;;;;;;;6.60;2.67;;;;;;;35.41;19.72;99188.72;5032705;28;20489;-65
2022/05/05 06:39:25;;;;;;;14.52;3.67;;;;;;;35.46;20.58;99188.72;5033822;28;20061;-65
2022/05/05 06:41:50;;;;;;;6.07;2.60;;;;;;;35.60;19.37;99190.91;5016218;28;20076;-67
2022/05/05 06:44:16;;;;;;;13.80;3.10;;;;;;;35.43;20.23;99191.97;5033677;28;20462;-66
2022/05/05 06:46:41;;;;;;;18.55;3.45;;;;;;;35.37;20.18;99189.53;5033724;28;20033;-67
2022/05/05 06:49:07;;;;;;;16.08;3.80;;;;;;;35.29;19.78;99191.69;5032583;28;20026;-68
2022/05/05 06:51:33;;;;;;;123.88;22.00;;;;;;;35.28;21.47;99186.53;5033478;28;20087;-67
2022/05/05 06:53:58;;;;;;;22.77;5.53;;;;;;;35.20;20.32;99192.44;5033606;28;20065;-63
2022/05/05 06:56:25;;;;;;;36.47;6.35;;;;;;;35.20;20.16;99195.97;5033556;28;20037;-67
2022/05/05 06:58:50;;;;;;;34.50;6.75;;;;;;;35.14;20.39;99194.34;5033365;28;20615;-67
2022/05/05 07:06:43;;;;;;;25.73;5.75;;;;;;;35.07;20.38;99202.72;5033848;28;20040;-63
2022/05/05 07:11:54;;;;;;;18.25;4.35;;;;;;;35.13;19.30;99201.66;5049770;28;20040;-63
2022/05/05 07:14:19;;;;;;;17.80;4.47;;;;;;;35.18;19.75;99200.84;5033827;28;20532;-63
2022/05/05 07:16:44;;;;;;;26.20;5.07;;;;;;;35.15;20.38;99202.22;5032846;28;20029;-62
2022/05/05 07:19:10;;;;;;;19.73;4.57;;;;;;;35.09;20.29;99208.72;5032887;28;20123;-66
2022/05/05 07:21:37;;;;;;;23.33;5.22;;;;;;;35.00;20.95;99212.19;5033092;28;20040;-63
2022/05/05 07:24:03;;;;;;;15.17;4.20;;;;;;;34.91;20.00;99217.34;5032103;28;20069;-63
2022/05/05 07:26:29;;;;;;;12.82;3.70;;;;;;;34.95;20.18;99216.53;5015349;28;20256;-65
2022/05/05 07:28:55;;;;;;;16.20;3.65;;;;;;;34.94;19.75;99216.81;5032794;28;20103;-65
2022/05/05 07:31:20;;;;;;;21.88;4.25;;;;;;;34.98;20.52;99217.88;5033138;28;20396;-64
2022/05/05 07:33:46;;;;;;;19.15;4.50;;;;;;;34.83;22.01;99220.56;5032548;28;20092;-66
2022/05/05 07:36:11;;;;;;;10.73;3.63;;;;;;;34.85;21.22;99219.19;4999540;28;20041;-65
2022/05/05 07:38:37;;;;;;;13.57;3.70;;;;;;;34.76;21.04;99218.06;5032783;28;20469;-65
2022/05/05 07:41:03;;;;;;;32.38;4.22;;;;;;;34.84;21.45;99222.19;5032699;28;20029;-69
2022/05/05 07:43:29;;;;;;;13.93;3.33;;;;;;;34.80;21.25;99227.31;5032407;28;20025;-67
2022/05/05 07:45:54;;;;;;;12.05;3.90;;;;;;;34.67;20.76;99228.59;5032598;28;20052;-64
2022/05/05 07:48:20;;;;;;;15.88;3.47;;;;;;;34.64;21.09;99222.91;5032329;28;20064;-66
2022/05/05 07:50:47;;;;;;;15.95;3.42;;;;;;;34.42;21.53;99216.53;5032612;28;20017;-65
2022/05/05 07:53:13;;;;;;;18.10;3.47;;;;;;;34.19;21.67;99223.16;5014774;28;20025;-65
2022/05/05 07:55:39;;;;;;;10.75;3.38;;;;;;;33.54;22.52;99225.88;5014876;28;20036;-65
2022/05/05 07:58:04;;;;;;;12.27;3.38;;;;;;;32.80;22.94;99237.19;5032605;28;20041;-66
2022/05/05 08:00:30;;;;;;;9.45;3.20;;;;;;;32.14;24.32;99237.06;5032314;28;20472;-65
2022/05/05 08:02:55;;;;;;;13.73;3.60;;;;;;;31.53;24.88;99232.22;5032199;28;20033;-65
2022/05/05 08:05:21;;;;;;;10.75;2.95;;;;;;;31.01;24.99;99238.47;5032621;28;20106;-65
2022/05/05 08:07:48;;;;;;;14.80;3.60;;;;;;;30.57;26.74;99236.22;5032387;28;20034;-65
2022/05/05 08:10:13;;;;;;;9.27;2.95;;;;;;;30.23;27.98;99243.22;5014743;28;20041;-66
2022/05/05 08:12:39;;;;;;;7.88;2.90;;;;;;;29.84;28.03;99232.88;5032213;28;20038;-65
2022/05/05 08:15:06;;;;;;;11.07;3.08;;;;;;;29.57;28.53;99249.38;4998337;28;20041;-65
2022/05/05 08:17:33;;;;;;;11.53;3.10;;;;;;;29.31;28.40;99245.19;5032244;28;20087;-65
2022/05/05 08:19:59;;;;;;;15.70;3.03;;;;;;;28.95;28.82;99241.47;5032322;28;20036;-64
2022/05/05 08:22:24;;;;;;;7.40;2.80;;;;;;;28.68;29.15;99251.69;5014365;28;20428;-65
2022/05/05 08:30:18;;;;;;;6.53;2.60;;;;;;;28.54;29.90;99248.28;5031966;28;20044;-64
2022/05/05 08:32:43;;;;;;;9.60;2.60;;;;;;;28.44;29.56;99250.66;5031783;28;20029;-64
2022/05/05 08:35:10;;;;;;;7.70;2.47;;;;;;;28.78;29.82;99251.16;5031744;28;20060;-65
2022/05/05 08:37:35;;;;;;;9.00;2.50;;;;;;;29.12;29.09;99249.75;5031010;28;20041;-65
2022/05/05 08:40:02;;;;;;;8.25;2.45;;;;;;;29.14;29.45;99249.50;5031897;28;20056;-66
2022/05/05 08:42:27;;;;;;;6.50;2.63;;;;;;;28.93;30.17;99253.50;5030767;28;20036;-66
2022/05/05 08:44:53;;;;;;;5.80;2.20;;;;;;;28.72;29.90;99252.06;5032166;28;20030;-67
2022/05/05 08:47:18;;;;;;;4.78;1.98;;;;;;;28.45;29.86;99254.97;5030336;28;20045;-65
2022/05/05 08:49:43;;;;;;;9.30;2.13;;;;;;;28.20;30.68;99260.41;5030352;28;20048;-66
2022/05/05 08:52:10;;;;;;;8.00;2.47;;;;;;;27.78;30.88;99255.50;5031891;28;20033;-65
2022/05/05 08:54:35;;;;;;;6.82;2.45;;;;;;;27.55;31.48;99264.09;4998352;28;20128;-66
2022/05/05 08:57:00;;;;;;;7.05;2.67;;;;;;;27.34;31.17;99260.72;5034876;28;20087;-65
2022/05/05 08:59:26;;;;;;;7.43;2.72;;;;;;;27.14;31.74;99260.75;5035511;28;20393;-65
2022/05/05 09:01:52;;;;;;;5.15;2.35;;;;;;;26.88;32.25;99264.34;5035635;28;20032;-65
2022/05/05 09:04:18;;;;;;;5.20;2.38;;;;;;;26.74;32.45;99263.56;5035842;28;20175;-65
2022/05/05 09:06:47;;;;;;;10.18;2.47;;;;;;;26.54;32.58;99272.41;5034360;28;20021;-65
2022/05/05 09:09:32;;;;;;;9.05;2.55;;;;;;;26.44;33.17;99271.19;5018335;28;20041;-65
2022/05/05 09:12:12;;;;;;;6.07;1.98;;;;;;;26.20;33.15;99257.41;5017876;28;20033;-65
2022/05/05 09:14:53;;;;;;;3.97;2.20;;;;;;;26.16;33.53;99266.88;5034331;28;20064;-64
2022/05/05 09:17:19;;;;;;;8.38;2.17;;;;;;;26.17;33.89;99276.53;5034644;28;20429;-65
2022/05/05 09:19:49;;;;;;;6.25;2.15;;;;;;;26.10;33.94;99275.72;5033812;28;20555;-65
2022/05/05 09:22:16;;;;;;;8.00;1.98;;;;;;;26.04;34.02;99273.88;5017474;28;20047;-65
2022/05/05 09:24:56;;;;;;;9.95;2.45;;;;;;;26.05;34.07;99271.00;5017249;28;20029;-65
2022/05/05 09:27:28;;;;;;;5.93;2.20;;;;;;;26.02;33.78;99268.72;5017800;28;20029;-66
2022/05/05 09:29:56;;;;;;;7.13;2.20;;;;;;;26.04;34.08;99273.88;5034530;28;20104;-66
2022/05/05 09:32:26;;;;;;;6.22;2.35;;;;;;;25.96;33.94;99258.81;5035258;28;20429;-66
2022/05/05 09:34:59;;;;;;;5.53;2.00;;;;;;;25.97;34.08;99268.53;5017007;28;20049;-64
2022/05/05 09:37:24;;;;;;;3.83;2.00;;;;;;;25.80;34.04;99258.16;5017064;28;20103;-66
2022/05/05 09:39:54;;;;;;;4.07;1.80;;;;;;;25.85;33.81;99264.78;5034693;28;20025;-66
2022/05/05 09:42:34;;;;;;;4.22;2.28;;;;;;;25.81;33.83;99265.19;5033877;28;20087;-65
2022/05/05 09:45:12;;;;;;;4.78;2.40;;;;;;;25.87;33.30;99265.38;5034287;28;20041;-65
2022/05/05 09:47:41;;;;;;;4.13;2.13;;;;;;;25.96;33.17;99269.50;5017569;28;20056;-65
2022/05/05 09:50:07;;;;;;;6.05;2.25;;;;;;;25.96;33.18;99272.19;5033678;28;20033;-65
2022/05/05 09:58:03;;;;;;;4.53;2.35;;;;;;;25.97;33.14;99280.03;5019930;28;20037;-66
2022/05/05 10:05:48;;;;;;;3.85;2.00;;;;;;;25.91;33.37;99272.78;5019676;28;20041;-65
2022/05/05 10:08:15;;;;;;;3.15;2.00;;;;;;;25.96;32.69;99286.38;5017297;28;20381;-65
2022/05/05 10:10:42;;;;;;;8.57;2.00;;;;;;;25.98;32.71;99280.84;5033724;28;20049;-65
2022/05/05 10:13:08;;;;;;;6.27;2.30;;;;;;;25.92;32.65;99284.31;5016791;28;20091;-65
2022/05/05 10:15:33;;;;;;;5.60;2.08;;;;;;;25.80;32.81;99276.88;5033329;28;20025;-66
2022/05/05 10:18:02;;;;;;;4.30;2.10;;;;;;;25.64;33.24;99263.91;5034280;28;20037;-65
2022/05/05 10:20:29;;;;;;;4.65;2.25;;;;;;;25.64;33.27;99263.91;5033111;28;20508;-65
2022/05/05 10:23:05;;;;;;;3.17;2.00;;;;;;;25.70;33.19;99263.09;5016696;28;20029;-64
2022/05/05 10:25:32;;;;;;;3.88;1.95;;;;;;;25.79;33.15;99261.88;5016230;28;20032;-64
2022/05/05 10:27:59;;;;;;;3.30;2.10;;;;;;;26.01;32.31;99267.06;5000774;28;20056;-64
2022/05/05 10:30:35;;;;;;;3.90;2.00;;;;;;;26.21;31.66;99274.31;5032621;28;20044;-64
2022/05/05 10:33:01;;;;;;;4.28;1.90;;;;;;;26.36;31.30;99281.09;5032570;28;20040;-64
2022/05/05 10:35:27;;;;;;;5.32;2.10;;;;;;;26.43;31.83;99278.41;5032532;28;20423;-65
2022/05/05 10:37:53;;;;;;;4.38;1.90;;;;;;;26.42;32.07;99279.41;5000000;28;20492;-65
2022/05/05 10:40:19;;;;;;;3.22;1.98;;;;;;;26.46;31.83;99277.19;5032451;28;20041;-65
2022/05/05 10:42:45;;;;;;;4.30;1.92;;;;;;;26.32;31.87;99289.72;5033776;28;20109;-65
2022/05/05 10:45:32;;;;;;;4.65;1.85;;;;;;;26.36;32.05;99289.13;5015911;28;20488;-65
2022/05/05 10:48:06;;;;;;;5.15;2.05;;;;;;;26.27;31.45;99289.53;5034163;28;20029;-64
2022/05/05 10:50:42;;;;;;;6.05;1.80;;;;;;;26.18;31.31;99291.56;5032405;28;20033;-65
2022/05/05 10:53:09;;;;;;;3.92;1.70;;;;;;;26.30;31.52;99297.16;5017278;28;20036;-65
2022/05/05 10:55:40;;;;;;;5.38;1.88;;;;;;;26.21;31.32;99295.72;4999439;28;20038;-65
2022/05/05 10:58:09;;;;;;;2.28;1.60;;;;;;;26.17;30.81;99304.16;5033304;28;20053;-65
2022/05/05 11:00:41;;;;;;;7.32;1.80;;;;;;;26.07;31.17;99302.91;5033350;28;20414;-65
2022/05/05 11:03:06;;;;;;;3.22;1.77;;;;;;;25.96;31.06;99301.59;4999416;28;20404;-65
2022/05/05 11:05:38;;;;;;;2.33;1.80;;;;;;;25.80;31.23;99300.94;5033675;28;20033;-65
2022/05/05 11:08:14;;;;;;;3.47;1.92;;;;;;;25.68;31.55;99299.91;5031835;28;20126;-65
2022/05/05 11:10:46;;;;;;;2.05;1.63;;;;;;;25.58;31.19;99297.59;5032807;28;20036;-65
2022/05/05 11:13:36;;;;;;;2.42;1.40;;;;;;;25.55;30.04;99291.84;5015927;28;20048;-64
2022/05/05 11:22:11;;;;;;;3.53;1.90;;;;;;;25.09;31.92;99295.94;5032035;28;20090;-65
2022/05/05 11:24:37;;;;;;;2.72;1.67;;;;;;;24.99;31.42;99295.50;5032048;28;20033;-65
2022/05/05 11:27:04;;;;;;;3.45;1.98;;;;;;;24.95;31.63;99292.38;5015282;28;20030;-65
2022/05/05 11:29:33;;;;;;;2.88;1.70;;;;;;;24.95;31.82;99299.56;5015583;28;20033;-65
2022/05/05 11:31:59;;;;;;;7.05;1.90;;;;;;;24.93;31.29;99302.44;5031657;28;20112;-64
2022/05/05 11:34:36;;;;;;;5.00;2.00;;;;;;;24.90;31.72;99305.50;5014903;28;20532;-65
2022/05/05 11:37:02;;;;;;;3.45;1.73;;;;;;;24.86;31.79;99298.88;5015428;28;20045;-65
2022/05/05 11:39:33;;;;;;;2.42;1.60;;;;;;;24.81;32.04;99299.50;5031125;28;20026;-65
2022/05/05 11:42:01;;;;;;;4.88;1.92;;;;;;;24.76;31.99;99299.25;5015969;28;20032;-65
2022/05/05 11:44:27;;;;;;;4.43;1.97;;;;;;;24.70;32.08;99300.03;5015001;28;20047;-65
2022/05/05 11:46:59;;;;;;;4.43;1.70;;;;;;;24.65;32.45;99292.59;5015188;28;20276;-65
2022/05/05 11:49:32;;;;;;;4.15;1.90;;;;;;;24.59;32.51;99296.06;5015417;28;20037;-65
2022/05/05 11:51:58;;;;;;;4.32;2.00;;;;;;;24.61;33.74;99301.22;5031564;28;20021;-65
2022/05/05 11:54:26;;;;;;;3.70;1.80;;;;;;;24.68;33.54;99291.38;5032585;28;20064;-65
2022/05/05 11:56:53;;;;;;;2.85;1.80;;;;;;;24.72;33.36;99290.81;5015312;28;20045;-65
2022/05/05 12:02:13;;;;;;;3.03;1.40;;;;;;;24.68;32.55;99294.06;5031424;28;20078;-65
2022/05/05 12:04:40;;;;;;;2.58;1.73;;;;;;;24.62;32.83;99293.00;4998478;28;20033;-65
2022/05/05 12:07:07;;;;;;;3.30;1.90;;;;;;;24.60;32.85;99295.03;5014648;28;20025;-65
2022/05/05 12:09:33;;;;;;;2.97;1.63;;;;;;;24.58;33.17;99291.75;5014631;28;20473;-65
2022/05/05 12:12:11;;;;;;;2.30;1.80;;;;;;;24.58;33.05;99296.25;5030939;28;20033;-65
2022/05/05 12:14:42;;;;;;;2.63;1.77;;;;;;;24.63;33.04;99297.31;5031099;28;20159;-65
2022/05/05 12:17:09;;;;;;;2.45;1.75;;;;;;;24.61;33.30;99294.03;4998897;28;20030;-64
2022/05/05 12:19:44;;;;;;;3.88;1.80;;;;;;;24.73;33.33;99299.63;4998376;28;20034;-66